createdAt,value
2018-09-13T00:01:13.168Z,102202.03
2018-09-13T00:03:41.502Z,102214.05
2018-09-13T00:06:09.826Z,102208.97
2018-09-13T00:08:38.207Z,102213.21
2018-09-13T00:11:06.776Z,102217.71
2018-09-13T00:13:35.113Z,102213.44
2018-09-13T00:16:04.475Z,102218.16
2018-09-13T00:18:32.808Z,102213.63
2018-09-13T00:21:01.200Z,102213.27
2018-09-13T00:23:29.708Z,102211.95
2018-09-13T00:25:58.040Z,102217.22
2018-09-13T00:28:26.369Z,102209.52
2018-09-13T00:30:54.712Z,102213.27
2018-09-13T00:33:23.031Z,102208.83
2018-09-13T00:35:51.362Z,102211.06
2018-09-13T00:38:19.691Z,102211.14
2018-09-13T00:40:48.092Z,102208.56
2018-09-13T00:43:16.428Z,102209.03
2018-09-13T00:45:44.797Z,102209.48
2018-09-13T00:48:13.134Z,102210.02
2018-09-13T00:50:41.488Z,102208.11
2018-09-13T00:53:10.084Z,102211.64
2018-09-13T00:55:38.514Z,102210.97
2018-09-13T00:58:06.894Z,102208.56
2018-09-13T01:00:35.373Z,102205.87
2018-09-13T01:03:03.720Z,102207.95
2018-09-13T01:05:32.093Z,102205.66
2018-09-13T01:08:01.565Z,102197.66
2018-09-13T01:10:29.964Z,102199.16
2018-09-13T01:12:58.304Z,102195.55
2018-09-13T01:15:26.671Z,102202.42
2018-09-13T01:17:55.040Z,102200.48
2018-09-13T01:20:23.384Z,102204.83
2018-09-13T01:22:51.833Z,102211.14
2018-09-13T01:25:20.184Z,102210.13
2018-09-13T01:27:48.612Z,102201.84
2018-09-13T01:30:17.192Z,102206.51
2018-09-13T01:32:45.604Z,102204.25
2018-09-13T01:35:13.948Z,102199.98
2018-09-13T01:37:43.332Z,102196.22
2018-09-13T01:40:11.689Z,102194.39
2018-09-13T01:42:40.016Z,102197.90
2018-09-13T01:45:08.385Z,102198.05
2018-09-13T01:47:36.716Z,102199.72
2018-09-13T01:50:05.121Z,102206.64
2018-09-13T01:52:33.736Z,102203.95
2018-09-13T01:55:02.092Z,102205.33
2018-09-13T01:57:30.633Z,102208.33
2018-09-13T01:59:58.992Z,102205.07
2018-09-13T02:02:27.392Z,102203.50
2018-09-13T02:04:55.756Z,102201.08
2018-09-13T02:07:24.104Z,102202.20
2018-09-13T02:09:52.425Z,102199.34
2018-09-13T02:12:20.741Z,102209.00
2018-09-13T02:14:49.084Z,102200.94
2018-09-13T02:17:18.465Z,102197.78
2018-09-13T02:19:46.771Z,102199.08
2018-09-13T02:22:15.109Z,102205.33
2018-09-13T02:24:43.437Z,102202.33
2018-09-13T02:27:11.756Z,102209.38
2018-09-13T02:29:40.099Z,102209.86
2018-09-13T02:32:08.412Z,102206.72
2018-09-13T02:34:36.733Z,102206.72
2018-09-13T02:37:06.074Z,102203.70
2018-09-13T02:39:34.392Z,102200.91
2018-09-13T02:42:02.746Z,102194.59
2018-09-13T02:44:31.089Z,102202.33
2018-09-13T02:46:59.396Z,102200.94
2018-09-13T02:49:27.773Z,102206.55
2018-09-13T02:51:56.124Z,102201.38
2018-09-13T02:54:24.508Z,102215.14
2018-09-13T02:56:52.816Z,102209.52
2018-09-13T02:59:21.229Z,102218.58
2018-09-13T03:01:49.540Z,102216.68
2018-09-13T03:04:17.844Z,102211.06
2018-09-13T03:06:46.356Z,102204.88
2018-09-13T03:09:14.672Z,102209.00
2018-09-13T03:11:43.956Z,102209.38
2018-09-13T03:14:12.803Z,102209.38
2018-09-13T03:16:41.505Z,102205.83
2018-09-13T03:19:09.871Z,102206.15
2018-09-13T03:21:38.210Z,102205.78
2018-09-13T03:24:06.538Z,102200.23
2018-09-13T03:26:34.889Z,102202.05
2018-09-13T03:29:03.265Z,102206.45
2018-09-13T03:31:31.617Z,102206.55
2018-09-13T03:33:59.969Z,102196.89
2018-09-13T03:36:28.300Z,102206.37
2018-09-13T03:38:56.616Z,102211.16
2018-09-13T03:41:26.001Z,102213.95
2018-09-13T03:43:54.321Z,102216.78
2018-09-13T03:46:22.641Z,102205.15
2018-09-13T03:48:50.953Z,102204.61
2018-09-13T03:51:19.273Z,102211.91
2018-09-13T03:53:47.588Z,102209.12
2018-09-13T03:56:15.924Z,102207.41
2018-09-13T03:58:44.292Z,102210.23
2018-09-13T04:01:12.884Z,102208.82
2018-09-13T04:03:41.244Z,102208.53
2018-09-13T04:06:09.612Z,102205.45
2018-09-13T04:08:37.986Z,102207.76
2018-09-13T04:11:06.662Z,102211.51
2018-09-13T04:13:35.017Z,102207.76
2018-09-13T04:16:03.383Z,102212.73
2018-09-13T04:18:31.713Z,102210.95
2018-09-13T04:21:00.024Z,102208.45
2018-09-13T04:23:28.385Z,102218.08
2018-09-13T04:25:56.704Z,102201.41
2018-09-13T04:28:25.009Z,102212.89
2018-09-13T04:30:53.333Z,102213.19
2018-09-13T04:33:23.668Z,102209.03
2018-09-13T04:35:52.450Z,102211.92
2018-09-13T04:38:20.640Z,102213.59
2018-09-13T04:40:48.948Z,102212.57
2018-09-13T04:43:17.312Z,102219.58
2018-09-13T04:45:45.696Z,102211.23
2018-09-13T04:48:14.102Z,102207.22
2018-09-13T04:50:42.420Z,102204.14
2018-09-13T04:53:10.816Z,102204.80
2018-09-13T04:55:39.127Z,102213.33
2018-09-13T04:58:07.469Z,102215.50
2018-09-13T05:00:35.788Z,102204.71
2018-09-13T05:03:04.116Z,102214.73
2018-09-13T05:05:32.429Z,102204.14
2018-09-13T05:08:00.768Z,102213.53
2018-09-13T05:10:29.084Z,102214.98
2018-09-13T05:12:57.526Z,102215.15
2018-09-13T05:15:25.752Z,102214.47
2018-09-13T05:17:54.081Z,102210.24
2018-09-13T05:20:22.420Z,102220.81
2018-09-13T05:22:50.740Z,102220.09
2018-09-13T05:25:19.116Z,102220.92
2018-09-13T05:27:48.524Z,102220.75
2018-09-13T05:30:16.880Z,102226.19
2018-09-13T05:32:45.719Z,102225.79
2018-09-13T05:35:14.264Z,102231.80
2018-09-13T05:37:42.640Z,102231.41
2018-09-13T05:40:10.977Z,102241.16
2018-09-13T05:42:39.309Z,102236.28
2018-09-13T05:45:07.633Z,102233.80
2018-09-13T05:47:35.964Z,102242.59
2018-09-13T05:50:04.340Z,102241.45
2018-09-13T05:52:32.676Z,102235.21
2018-09-13T05:55:01.000Z,102236.30
2018-09-13T05:57:29.615Z,102241.98
2018-09-13T05:59:57.924Z,102240.04
2018-09-13T06:02:26.277Z,102237.11
2018-09-13T06:04:54.601Z,102234.62
2018-09-13T06:07:22.940Z,102234.42
2018-09-13T06:09:51.320Z,102237.50
2018-09-13T06:12:19.656Z,102237.02
2018-09-13T06:14:48.029Z,102247.75
2018-09-13T06:17:16.412Z,102244.95
2018-09-13T06:19:44.845Z,102246.49
2018-09-13T06:22:13.247Z,102247.78
2018-09-13T06:24:41.588Z,102247.95
2018-09-13T06:27:11.033Z,102244.72
2018-09-13T06:29:39.490Z,102247.91
2018-09-13T06:32:07.761Z,102255.20
2018-09-13T06:34:36.084Z,102250.23
2018-09-13T06:37:04.444Z,102257.33
2018-09-13T06:39:32.766Z,102252.67
2018-09-13T06:42:01.216Z,102253.53
2018-09-13T06:44:29.540Z,102258.02
2018-09-13T06:46:57.878Z,102255.51
2018-09-13T06:49:26.200Z,102254.58
2018-09-13T06:51:54.548Z,102255.40
2018-09-13T06:54:22.861Z,102256.73
2018-09-13T06:56:51.193Z,102250.84
2018-09-13T06:59:19.968Z,102245.50
2018-09-13T07:01:48.304Z,102249.77
2018-09-13T07:04:16.661Z,102246.95
2018-09-13T07:06:44.980Z,102243.65
2018-09-13T07:09:14.881Z,102244.98
2018-09-13T07:11:44.188Z,102247.71
2018-09-13T07:14:12.542Z,102245.20
2018-09-13T07:16:44.063Z,102243.98
2018-09-13T07:19:12.686Z,102248.91
2018-09-13T07:21:41.315Z,102242.80
2018-09-13T07:24:09.646Z,102245.94
2018-09-13T07:26:38.212Z,102245.67
2018-09-13T07:29:06.549Z,102244.94
2018-09-13T07:31:34.853Z,102249.35
2018-09-13T07:34:03.368Z,102246.80
2018-09-13T07:36:31.688Z,102234.55
2018-09-13T07:39:00.925Z,102232.16
2018-09-13T07:41:29.292Z,102233.75
2018-09-13T07:43:57.612Z,102242.83
2018-09-13T07:46:25.997Z,102232.35
2018-09-13T07:48:54.330Z,102236.39
2018-09-13T07:51:22.661Z,102236.89
2018-09-13T07:53:50.988Z,102226.77
2018-09-13T07:56:20.355Z,102234.16
2018-09-13T07:58:48.840Z,102232.02
2018-09-13T08:01:17.191Z,102233.39
2018-09-13T08:03:45.516Z,102238.94
2018-09-13T08:06:13.840Z,102240.67
2018-09-13T08:08:42.148Z,102240.56
2018-09-13T08:11:10.460Z,102238.03
2018-09-13T08:13:38.779Z,102240.31
2018-09-13T08:16:07.103Z,102236.05
2018-09-13T08:18:35.447Z,102246.95
2018-09-13T08:21:03.872Z,102243.09
2018-09-13T08:23:32.200Z,102245.48
2018-09-13T08:26:00.637Z,102253.92
2018-09-13T08:28:29.012Z,102250.16
2018-09-13T08:30:58.336Z,102254.61
2018-09-13T08:33:26.766Z,102245.20
2018-09-13T08:35:56.003Z,102248.42
2018-09-13T08:38:25.505Z,102246.06
2018-09-13T08:40:53.927Z,102247.84
2018-09-13T08:43:22.244Z,102240.87
2018-09-13T08:45:50.791Z,102246.31
2018-09-13T08:48:19.116Z,102238.48
2018-09-13T08:50:47.510Z,102237.70
2018-09-13T08:53:15.836Z,102244.98
2018-09-13T08:55:44.144Z,102248.08
2018-09-13T08:58:12.459Z,102241.08
2018-09-13T09:00:40.826Z,102241.56
2018-09-13T09:03:09.119Z,102240.70
2018-09-13T09:05:37.560Z,102229.94
2018-09-13T09:08:05.925Z,102231.34
2018-09-13T09:10:34.247Z,102237.16
2018-09-13T09:13:02.572Z,102223.31
2018-09-13T09:15:31.951Z,102223.06
2018-09-13T09:18:00.306Z,102226.50
2018-09-13T09:20:28.869Z,102220.81
2018-09-13T09:22:57.247Z,102222.72
2018-09-13T09:25:25.614Z,102219.52
2018-09-13T09:27:53.951Z,102218.49
2018-09-13T09:30:22.333Z,102224.55
2018-09-13T09:32:51.872Z,102219.47
2018-09-13T09:35:20.209Z,102215.55
2018-09-13T09:37:48.588Z,102208.02
2018-09-13T09:40:16.925Z,102207.91
2018-09-13T09:42:46.348Z,102208.41
2018-09-13T09:45:15.874Z,102205.36
2018-09-13T09:47:45.227Z,102200.39
2018-09-13T09:50:13.654Z,102205.77
2018-09-13T09:52:42.057Z,102193.00
2018-09-13T09:55:10.390Z,102192.05
2018-09-13T09:57:40.572Z,102202.66
2018-09-13T10:00:08.968Z,102197.62
2018-09-13T10:02:37.390Z,102196.51
2018-09-13T10:05:05.748Z,102194.09
2018-09-13T10:07:34.100Z,102195.16
2018-09-13T10:10:02.476Z,102191.39
2018-09-13T10:12:30.832Z,102194.88
2018-09-13T10:15:04.393Z,102192.94
2018-09-13T10:17:38.128Z,102196.33
2018-09-13T10:20:11.682Z,102193.86
2018-09-13T10:22:45.469Z,102186.67
2018-09-13T10:30:26.201Z,102186.56
2018-09-13T10:32:59.905Z,102190.84
2018-09-13T10:35:33.653Z,102184.77
2018-09-13T10:38:07.412Z,102174.92
2018-09-13T10:40:41.245Z,102183.00
2018-09-13T10:43:14.957Z,102178.45
2018-09-13T10:45:48.698Z,102172.92
2018-09-13T10:48:22.081Z,102180.45
2018-09-13T10:50:55.609Z,102180.91
2018-09-13T10:53:29.328Z,102182.31
2018-09-13T10:55:57.708Z,102181.48
2018-09-13T10:58:26.064Z,102170.73
2018-09-13T11:00:54.447Z,102167.15
2018-09-13T11:03:22.859Z,102165.22
2018-09-13T11:05:51.204Z,102156.45
2018-09-13T11:08:19.533Z,102165.34
2018-09-13T11:10:48.203Z,102167.45
2018-09-13T11:13:25.661Z,102163.58
2018-09-13T11:15:54.021Z,102155.13
2018-09-13T11:18:22.370Z,102158.70
2018-09-13T11:20:51.760Z,102148.63
2018-09-13T11:23:20.289Z,102152.79
2018-09-13T11:25:48.692Z,102154.11
2018-09-13T11:28:17.025Z,102147.95
2018-09-13T11:30:47.942Z,102149.86
2018-09-13T11:33:16.276Z,102154.50
2018-09-13T11:35:44.706Z,102143.63
2018-09-13T11:38:13.068Z,102146.71
2018-09-13T11:40:41.640Z,102143.69
2018-09-13T11:43:09.736Z,102147.28
2018-09-13T11:45:38.280Z,102140.98
2018-09-13T11:48:06.681Z,102145.07
2018-09-13T11:50:35.097Z,102146.25
2018-09-13T11:53:03.513Z,102139.77
2018-09-13T11:55:31.856Z,102139.72
2018-09-13T11:58:01.356Z,102134.09
2018-09-13T12:00:29.965Z,102118.97
2018-09-13T12:02:58.345Z,102130.11
2018-09-13T12:05:26.788Z,102128.91
2018-09-13T12:07:55.148Z,102122.28
2018-09-13T12:10:23.476Z,102125.30
2018-09-13T12:12:52.543Z,102117.61
2018-09-13T12:15:21.037Z,102115.42
2018-09-13T12:17:49.418Z,102111.05
2018-09-13T12:20:18.588Z,102102.64
2018-09-13T12:22:46.968Z,102103.47
2018-09-13T12:25:15.365Z,102100.91
2018-09-13T12:27:43.720Z,102099.87
2018-09-13T12:30:13.072Z,102107.84
2018-09-13T12:32:41.669Z,102092.08
2018-09-13T12:35:09.996Z,102090.98
2018-09-13T12:37:39.453Z,102092.16
2018-09-13T12:40:08.405Z,102094.72
2018-09-13T12:42:36.897Z,102088.42
2018-09-13T12:45:05.592Z,102091.60
2018-09-13T12:47:33.944Z,102093.47
2018-09-13T12:50:02.337Z,102089.39
2018-09-13T12:52:30.656Z,102094.06
2018-09-13T12:54:58.989Z,102090.34
2018-09-13T12:57:27.404Z,102094.17
2018-09-13T12:59:55.744Z,102087.95
2018-09-13T13:02:24.129Z,102079.17
2018-09-13T13:04:52.469Z,102071.73
2018-09-13T13:07:20.832Z,102083.03
2018-09-13T13:09:50.244Z,102072.64
2018-09-13T13:12:18.600Z,102077.08
2018-09-13T13:14:47.109Z,102063.63
2018-09-13T13:17:15.489Z,102060.17
2018-09-13T13:19:43.830Z,102055.34
2018-09-13T13:22:12.349Z,102051.33
2018-09-13T13:24:40.787Z,102059.16
2018-09-13T13:27:09.102Z,102054.65
2018-09-13T13:29:37.851Z,102056.59
2018-09-13T13:32:06.915Z,102058.05
2018-09-13T13:34:36.356Z,102060.62
2018-09-13T13:37:05.172Z,102062.11
2018-09-13T13:39:33.496Z,102057.16
2018-09-13T13:42:01.873Z,102059.20
2018-09-13T13:44:30.413Z,102053.59
2018-09-13T13:46:58.751Z,102052.06
2018-09-13T13:49:29.086Z,102054.22
2018-09-13T13:51:58.432Z,102052.45
2018-09-13T13:54:26.759Z,102047.66
2018-09-13T13:56:55.079Z,102044.00
2018-09-13T13:59:23.569Z,102037.70
2018-09-13T14:01:52.260Z,102036.82
2018-09-13T14:04:20.576Z,102044.67
2018-09-13T14:06:48.952Z,102049.18
2018-09-13T14:09:17.271Z,102043.48
2018-09-13T14:11:45.600Z,102043.67
2018-09-13T14:14:13.980Z,102039.06
2018-09-13T14:16:42.291Z,102038.75
2018-09-13T14:19:10.605Z,102037.86
2018-09-13T14:21:38.962Z,102035.52
2018-09-13T14:24:07.340Z,102030.68
2018-09-13T14:26:35.656Z,102039.65
2018-09-13T14:29:04.007Z,102034.57
2018-09-13T14:31:32.360Z,102022.73
2018-09-13T14:34:00.673Z,102023.63
2018-09-13T14:36:29.036Z,102023.00
2018-09-13T14:38:57.372Z,102022.70
2018-09-13T14:41:25.710Z,102022.22
2018-09-13T14:43:54.067Z,102015.11
2018-09-13T14:46:22.415Z,102003.98
2018-09-13T14:48:50.741Z,102007.56
2018-09-13T14:51:19.708Z,102012.11
2018-09-13T14:53:48.028Z,102004.38
2018-09-13T14:56:16.390Z,102006.50
2018-09-13T14:58:45.032Z,102007.27
2018-09-13T15:01:13.345Z,102008.35
2018-09-13T15:03:41.664Z,102014.33
2018-09-13T15:06:10.096Z,102019.53
2018-09-13T15:08:38.431Z,102020.57
2018-09-13T15:11:06.769Z,102017.62
2018-09-13T15:13:35.117Z,102009.16
2018-09-13T15:16:03.449Z,101999.30
2018-09-13T15:18:31.764Z,101985.25
2018-09-13T15:21:00.272Z,101984.39
2018-09-13T15:23:28.701Z,101982.94
2018-09-13T15:25:57.116Z,101981.94
2018-09-13T15:28:25.456Z,101979.50
2018-09-13T15:30:53.937Z,101986.34
2018-09-13T15:33:22.424Z,101990.85
2018-09-13T15:35:50.756Z,101979.80
2018-09-13T15:38:19.192Z,101992.24
2018-09-13T15:40:47.532Z,101999.11
2018-09-13T15:43:15.857Z,102004.70
2018-09-13T15:45:44.193Z,102010.65
2018-09-13T15:48:12.540Z,102006.16
2018-09-13T15:50:40.857Z,101998.78
2018-09-13T15:53:09.192Z,101996.27
2018-09-13T15:55:37.508Z,102001.44
2018-09-13T15:58:07.136Z,102005.19
2018-09-13T16:00:35.453Z,102001.41
2018-09-13T16:03:03.789Z,102003.84
2018-09-13T16:05:32.139Z,102003.45
2018-09-13T16:08:00.514Z,101999.39
2018-09-13T16:10:28.859Z,101990.53
2018-09-13T16:12:58.352Z,101992.89
2018-09-13T16:15:26.604Z,101993.52
2018-09-13T16:17:54.956Z,101988.69
2018-09-13T16:20:26.228Z,101990.61
2018-09-13T16:22:52.643Z,101981.14
2018-09-13T16:25:20.979Z,101974.77
2018-09-13T16:27:49.292Z,101989.69
2018-09-13T16:30:17.613Z,101988.69
2018-09-13T16:32:45.975Z,101983.19
2018-09-13T16:35:14.454Z,101979.48
2018-09-13T16:37:51.266Z,101983.95
2018-09-13T16:40:24.765Z,101985.70
2018-09-13T16:42:59.232Z,101979.23
2018-09-13T16:45:28.632Z,101990.50
2018-09-13T16:48:01.400Z,101979.14
2018-09-13T16:50:29.793Z,101984.40
2018-09-13T16:52:58.168Z,101989.11
2018-09-13T16:55:26.473Z,101989.59
2018-09-13T16:57:54.816Z,101989.87
2018-09-13T17:00:24.475Z,101989.59
2018-09-13T17:02:53.000Z,101988.27
2018-09-13T17:05:21.388Z,101994.68
2018-09-13T17:07:49.712Z,101991.47
2018-09-13T17:10:18.051Z,101997.34
2018-09-13T17:12:46.781Z,102002.52
2018-09-13T17:15:15.141Z,102004.87
2018-09-13T17:17:43.533Z,102013.59
2018-09-13T17:20:11.978Z,102010.93
2018-09-13T17:22:40.294Z,102013.99
2018-09-13T17:25:08.657Z,102016.36
2018-09-13T17:27:37.001Z,102021.56
2018-09-13T17:30:05.907Z,102016.47
2018-09-13T17:32:34.258Z,102024.55
2018-09-13T17:35:02.572Z,102016.27
2018-09-13T17:37:30.907Z,102015.58
2018-09-13T17:39:59.248Z,102010.68
2018-09-13T17:42:27.556Z,102013.80
2018-09-13T17:44:56.059Z,102017.25
2018-09-13T17:47:24.680Z,102016.23
2018-09-13T17:49:54.346Z,102012.84
2018-09-13T17:52:22.669Z,102015.66
2018-09-13T17:54:51.092Z,102014.62
2018-09-13T17:57:20.453Z,102015.67
2018-09-13T17:59:48.816Z,102020.54
2018-09-13T18:02:18.338Z,102012.54
2018-09-13T18:04:46.665Z,102018.66
2018-09-13T18:07:15.001Z,102017.75
2018-09-13T18:09:43.366Z,102021.29
2018-09-13T18:12:11.702Z,102023.88
2018-09-13T18:14:40.041Z,102023.69
2018-09-13T18:17:08.402Z,102025.14
2018-09-13T18:19:36.745Z,102031.42
2018-09-13T18:22:05.100Z,102035.53
2018-09-13T18:24:33.473Z,102033.15
2018-09-13T18:27:01.934Z,102040.15
2018-09-13T18:29:30.261Z,102039.56
2018-09-13T18:31:59.815Z,102046.52
2018-09-13T18:34:28.149Z,102047.94
2018-09-13T18:36:56.481Z,102045.23
2018-09-13T18:39:24.808Z,102050.86
2018-09-13T18:41:53.137Z,102061.14
2018-09-13T18:44:21.498Z,102061.16
2018-09-13T18:46:49.837Z,102064.01
2018-09-13T18:49:18.178Z,102058.91
2018-09-13T18:51:46.533Z,102054.61
2018-09-13T18:54:14.893Z,102056.77
2018-09-13T18:56:43.213Z,102064.06
2018-09-13T18:59:11.761Z,102064.69
2018-09-13T19:01:40.285Z,102059.07
2018-09-13T19:04:08.646Z,102055.03
2018-09-13T19:06:37.192Z,102054.90
2018-09-13T19:09:08.124Z,102053.93
2018-09-13T19:11:36.574Z,102053.48
2018-09-13T19:14:05.139Z,102055.07
2018-09-13T19:16:33.460Z,102052.66
2018-09-13T19:19:01.785Z,102048.48
2018-09-13T19:21:30.118Z,102048.61
2018-09-13T19:23:58.454Z,102054.94
2018-09-13T19:26:26.792Z,102057.23
2018-09-13T19:28:55.109Z,102057.71
2018-09-13T19:31:23.436Z,102055.46
2018-09-13T19:33:51.744Z,102054.50
2018-09-13T19:36:20.068Z,102050.80
2018-09-13T19:38:49.416Z,102054.75
2018-09-13T19:41:17.848Z,102051.24
2018-09-13T19:43:46.224Z,102053.87
2018-09-13T19:46:14.566Z,102048.00
2018-09-13T19:48:42.886Z,102050.89
2018-09-13T19:51:11.259Z,102052.20
2018-09-13T19:53:39.580Z,102055.80
2018-09-13T19:56:07.956Z,102059.17
2018-09-13T19:58:37.361Z,102060.01
2018-09-13T20:01:05.724Z,102060.13
2018-09-13T20:03:35.155Z,102066.45
2018-09-13T20:06:03.584Z,102062.16
2018-09-13T20:08:32.011Z,102070.64
2018-09-13T20:11:00.369Z,102069.81
2018-09-13T20:13:28.693Z,102073.52
2018-09-13T20:15:57.040Z,102073.75
2018-09-13T20:18:25.413Z,102072.80
2018-09-13T20:20:53.748Z,102070.63
2018-09-13T20:23:22.065Z,102074.09
2018-09-13T20:25:50.409Z,102069.31
2018-09-13T20:28:18.773Z,102068.59
2018-09-13T20:30:47.104Z,102074.80
2018-09-13T20:33:15.648Z,102072.53
2018-09-13T20:35:43.991Z,102067.62
2018-09-13T20:38:12.310Z,102062.91
2018-09-13T20:40:40.632Z,102065.06
2018-09-13T20:43:08.948Z,102065.23
2018-09-13T20:45:38.334Z,102066.77
2018-09-13T20:48:06.721Z,102069.16
2018-09-13T20:50:35.164Z,102070.33
2018-09-13T20:53:03.501Z,102070.45
2018-09-13T20:55:31.917Z,102075.23
2018-09-13T20:58:00.245Z,102066.98
2018-09-13T21:00:28.621Z,102068.99
2018-09-13T21:02:56.952Z,102069.14
2018-09-13T21:05:25.300Z,102070.06
2018-09-13T21:07:53.649Z,102074.70
2018-09-13T21:10:22.073Z,102072.80
2018-09-13T21:12:50.408Z,102076.00
2018-09-13T21:15:19.768Z,102071.21
2018-09-13T21:17:48.097Z,102079.97
2018-09-13T21:20:17.555Z,102070.41
2018-09-13T21:22:45.891Z,102075.64
2018-09-13T21:25:14.237Z,102075.61
2018-09-13T21:27:42.549Z,102074.20
2018-09-13T21:30:10.973Z,102070.11
2018-09-13T21:32:39.472Z,102075.13
2018-09-13T21:35:07.786Z,102069.51
2018-09-13T21:37:36.128Z,102065.80
2018-09-13T21:40:04.501Z,102072.83
2018-09-13T21:42:32.820Z,102066.05
2018-09-13T21:45:01.477Z,102074.03
2018-09-13T21:47:29.817Z,102071.36
2018-09-13T21:49:58.155Z,102065.73
2018-09-13T21:52:26.480Z,102061.28
2018-09-13T21:54:54.900Z,102061.08
2018-09-13T21:57:23.240Z,102065.47
2018-09-13T21:59:51.568Z,102062.19
2018-09-13T22:02:19.918Z,102067.37
2018-09-13T22:04:48.244Z,102062.39
2018-09-13T22:07:16.601Z,102066.89
2018-09-13T22:09:44.921Z,102063.19
2018-09-13T22:12:13.528Z,102057.92
2018-09-13T22:14:42.028Z,102062.94
2018-09-13T22:17:10.827Z,102062.18
2018-09-13T22:19:39.170Z,102065.58
2018-09-13T22:22:07.572Z,102062.78
2018-09-13T22:24:35.913Z,102061.06
2018-09-13T22:27:04.267Z,102068.07
2018-09-13T22:29:32.696Z,102063.75
2018-09-13T22:32:01.115Z,102074.08
2018-09-13T22:34:29.476Z,102071.09
2018-09-13T22:36:58.120Z,102066.94
2018-09-13T22:39:26.436Z,102073.31
2018-09-13T22:41:54.763Z,102069.55
2018-09-13T22:44:23.116Z,102067.01
2018-09-13T22:46:51.468Z,102069.75
2018-09-13T22:49:19.779Z,102074.45
2018-09-13T22:51:48.407Z,102075.59
2018-09-13T22:54:16.723Z,102075.48
2018-09-13T22:56:45.036Z,102075.59
2018-09-13T22:59:13.377Z,102076.08
2018-09-13T23:01:41.703Z,102076.00
2018-09-13T23:04:10.032Z,102074.41
2018-09-13T23:06:39.825Z,102071.58
2018-09-13T23:09:09.972Z,102074.34
2018-09-13T23:11:38.301Z,102077.03
2018-09-13T23:14:06.656Z,102077.03
2018-09-13T23:16:34.984Z,102074.10
2018-09-13T23:19:03.317Z,102079.95
2018-09-13T23:21:31.885Z,102072.38
2018-09-13T23:24:00.335Z,102073.97
2018-09-13T23:26:28.656Z,102072.54
2018-09-13T23:28:57.416Z,102070.58
2018-09-13T23:31:25.740Z,102070.55
2018-09-13T23:33:54.525Z,102067.76
2018-09-13T23:36:23.036Z,102071.95
2018-09-13T23:38:51.388Z,102071.97
2018-09-13T23:41:19.796Z,102061.63
2018-09-13T23:43:48.137Z,102067.40
2018-09-13T23:46:17.555Z,102061.86
2018-09-13T23:48:46.077Z,102065.98
2018-09-13T23:51:14.404Z,102061.34
2018-09-13T23:53:42.732Z,102068.02
2018-09-13T23:56:11.052Z,102064.13
2018-09-13T23:58:39.388Z,102063.41
